createdAt,value
2018-09-12T00:01:30.655Z,61.60
2018-09-12T00:04:01.648Z,61.50
2018-09-12T00:06:32.293Z,61.70
2018-09-12T00:09:04.854Z,61.60
2018-09-12T00:11:35.641Z,61.40
2018-09-12T00:14:07.650Z,61.40
2018-09-12T00:16:38.376Z,61.50
2018-09-12T00:19:12.791Z,61.60
2018-09-12T00:21:44.522Z,61.80
2018-09-12T00:24:15.552Z,61.80
2018-09-12T00:26:48.907Z,61.70
2018-09-12T00:29:19.893Z,61.60
2018-09-12T00:31:50.693Z,62.20
2018-09-12T00:34:21.151Z,62.20
2018-09-12T00:37:01.931Z,62.20
2018-09-12T00:39:32.924Z,62.20
2018-09-12T00:42:03.670Z,62.00
2018-09-12T00:44:35.247Z,61.90
2018-09-12T00:47:06.637Z,61.80
2018-09-12T00:49:37.707Z,62.10
2018-09-12T00:52:14.202Z,62.50
2018-09-12T00:54:45.180Z,62.40
2018-09-12T00:57:16.358Z,62.10
2018-09-12T00:59:47.060Z,62.00
2018-09-12T01:02:17.869Z,62.10
2018-09-12T01:04:48.355Z,62.10
2018-09-12T01:07:19.054Z,62.10
2018-09-12T01:09:49.562Z,62.00
2018-09-12T01:12:22.063Z,62.00
2018-09-12T01:14:52.489Z,62.30
2018-09-12T01:17:23.416Z,62.40
2018-09-12T01:19:54.574Z,62.50
2018-09-12T01:22:26.397Z,62.60
2018-09-12T01:24:57.076Z,62.50
2018-09-12T01:27:27.501Z,62.60
2018-09-12T01:29:58.545Z,63.20
2018-09-12T01:32:28.791Z,63.00
2018-09-12T01:35:00.287Z,63.00
2018-09-12T01:37:30.425Z,62.90
2018-09-12T01:40:01.764Z,62.90
2018-09-12T01:42:32.582Z,62.90
2018-09-12T01:45:03.465Z,63.20
2018-09-12T01:47:34.411Z,63.20
2018-09-12T01:50:05.078Z,63.30
2018-09-12T01:52:36.005Z,63.40
2018-09-12T01:55:08.156Z,63.10
2018-09-12T01:57:39.368Z,62.90
2018-09-12T02:00:16.904Z,62.80
2018-09-12T02:02:48.323Z,63.20
2018-09-12T02:05:19.331Z,63.60
2018-09-12T02:07:50.578Z,63.40
2018-09-12T02:10:21.311Z,63.80
2018-09-12T02:12:51.518Z,63.70
2018-09-12T02:15:22.236Z,63.80
2018-09-12T02:17:54.480Z,63.80
2018-09-12T02:20:25.424Z,63.90
2018-09-12T02:22:56.029Z,64.00
2018-09-12T02:25:26.622Z,63.60
2018-09-12T02:27:57.895Z,63.70
2018-09-12T02:30:28.833Z,63.80
2018-09-12T02:32:59.990Z,63.70
2018-09-12T02:35:30.670Z,63.70
2018-09-12T02:38:02.711Z,63.50
2018-09-12T02:40:33.532Z,63.40
2018-09-12T02:43:04.124Z,63.40
2018-09-12T02:45:34.310Z,63.20
2018-09-12T02:48:05.673Z,63.10
2018-09-12T02:50:36.130Z,63.10
2018-09-12T02:53:07.132Z,63.20
2018-09-12T02:55:37.700Z,63.50
2018-09-12T02:58:10.103Z,63.80
2018-09-12T03:00:40.391Z,63.60
2018-09-12T03:03:10.993Z,63.40
2018-09-12T03:05:41.881Z,63.40
2018-09-12T03:08:13.342Z,63.70
2018-09-12T03:10:45.865Z,63.80
2018-09-12T03:13:16.476Z,64.30
2018-09-12T03:15:47.533Z,64.60
2018-09-12T03:18:17.840Z,64.70
2018-09-12T03:20:48.830Z,64.90
2018-09-12T03:23:19.449Z,65.00
2018-09-12T03:26:20.664Z,64.80
2018-09-12T03:28:51.042Z,64.70
2018-09-12T03:31:21.049Z,64.40
2018-09-12T03:33:52.542Z,64.40
2018-09-12T03:36:22.520Z,64.20
2018-09-12T03:38:53.358Z,64.40
2018-09-12T03:41:23.660Z,64.50
2018-09-12T03:43:56.226Z,64.40
2018-09-12T03:46:28.196Z,64.60
2018-09-12T03:49:00.183Z,64.50
2018-09-12T03:51:30.709Z,64.40
2018-09-12T03:54:04.078Z,64.20
2018-09-12T03:56:36.408Z,64.30
2018-09-12T03:59:07.019Z,64.20
2018-09-12T04:01:39.619Z,64.00
2018-09-12T04:04:11.288Z,63.90
2018-09-12T04:06:42.206Z,64.00
2018-09-12T04:09:13.966Z,64.20
2018-09-12T04:11:46.492Z,64.30
2018-09-12T04:14:18.836Z,64.50
2018-09-12T04:16:51.159Z,64.50
2018-09-12T04:19:36.845Z,64.70
2018-09-12T04:22:10.973Z,65.00
2018-09-12T04:24:43.515Z,65.00
2018-09-12T04:27:28.882Z,65.10
2018-09-12T04:30:02.525Z,65.20
2018-09-12T04:32:35.658Z,66.30
2018-09-12T04:35:07.319Z,65.30
2018-09-12T04:37:38.205Z,65.50
2018-09-12T04:40:09.937Z,65.60
2018-09-12T04:42:40.477Z,65.80
2018-09-12T04:45:11.113Z,66.10
2018-09-12T04:47:43.411Z,66.40
2018-09-12T04:50:13.859Z,66.90
2018-09-12T04:52:44.788Z,67.80
2018-09-12T04:55:15.938Z,67.50
2018-09-12T04:57:46.597Z,67.70
2018-09-12T05:00:16.810Z,67.70
2018-09-12T05:02:54.523Z,67.40
2018-09-12T05:05:25.901Z,67.10
2018-09-12T05:07:56.295Z,67.10
2018-09-12T05:10:27.227Z,66.70
2018-09-12T05:12:57.938Z,66.50
2018-09-12T05:15:28.897Z,67.10
2018-09-12T05:17:59.320Z,66.20
2018-09-12T05:20:30.121Z,66.10
2018-09-12T05:23:00.225Z,65.80
2018-09-12T05:25:31.421Z,66.00
2018-09-12T05:28:01.296Z,65.70
2018-09-12T05:30:32.364Z,65.80
2018-09-12T05:33:01.886Z,65.70
2018-09-12T05:35:32.222Z,65.40
2018-09-12T05:38:01.736Z,65.50
2018-09-12T05:40:32.572Z,65.30
2018-09-12T05:43:02.470Z,65.60
2018-09-12T05:45:34.116Z,65.50
2018-09-12T05:48:03.509Z,65.80
2018-09-12T05:50:35.205Z,65.90
2018-09-12T05:53:04.708Z,66.00
2018-09-12T05:55:35.865Z,65.10
2018-09-12T05:58:07.185Z,65.00
2018-09-12T06:00:39.118Z,64.90
2018-09-12T06:03:09.162Z,65.00
2018-09-12T06:05:40.017Z,65.00
2018-09-12T06:08:11.876Z,65.30
2018-09-12T06:10:42.893Z,66.20
2018-09-12T06:13:14.310Z,65.40
2018-09-12T06:15:44.716Z,63.90
2018-09-12T06:18:16.105Z,63.00
2018-09-12T06:20:47.479Z,62.70
2018-09-12T06:23:19.188Z,62.10
2018-09-12T06:25:49.211Z,62.40
2018-09-12T06:28:20.777Z,62.30
2018-09-12T06:30:53.579Z,62.60
2018-09-12T06:33:24.270Z,62.60
2018-09-12T06:35:56.417Z,62.50
2018-09-12T06:38:27.063Z,62.50
2018-09-12T06:40:56.875Z,62.60
2018-09-12T06:43:28.467Z,62.10
2018-09-12T06:45:59.524Z,62.20
2018-09-12T06:48:29.906Z,62.20
2018-09-12T06:51:00.829Z,62.20
2018-09-12T06:53:31.012Z,62.50
2018-09-12T06:56:01.815Z,62.80
2018-09-12T06:58:31.978Z,62.10
2018-09-12T07:01:03.238Z,62.30
2018-09-12T07:03:34.997Z,62.80
2018-09-12T07:06:09.213Z,62.20
2018-09-12T07:08:42.297Z,62.00
2018-09-12T07:11:13.598Z,62.10
2018-09-12T07:13:48.185Z,62.10
2018-09-12T07:16:19.923Z,62.00
2018-09-12T07:21:11.755Z,61.10
2018-09-12T07:23:43.462Z,61.20
2018-09-12T07:26:14.266Z,61.50
2018-09-12T07:28:45.594Z,61.60
2018-09-12T07:31:17.154Z,61.90
2018-09-12T07:33:48.427Z,61.70
2018-09-12T07:36:19.542Z,61.20
2018-09-12T07:38:50.959Z,61.10
2018-09-12T07:41:21.787Z,61.20
2018-09-12T07:43:52.944Z,60.70
2018-09-12T07:46:24.586Z,60.70
2018-09-12T07:48:54.609Z,60.20
2018-09-12T07:51:25.202Z,60.60
2018-09-12T07:53:55.253Z,60.10
2018-09-12T07:56:26.782Z,60.00
2018-09-12T07:58:56.579Z,59.70
2018-09-12T08:01:28.909Z,59.80
2018-09-12T08:03:59.518Z,59.20
2018-09-12T08:06:31.514Z,59.10
2018-09-12T08:09:02.590Z,58.40
2018-09-12T08:11:33.398Z,58.50
2018-09-12T08:14:05.521Z,58.90
2018-09-12T08:16:35.629Z,59.40
2018-09-12T08:19:06.901Z,59.50
2018-09-12T08:21:36.877Z,59.30
2018-09-12T08:24:08.075Z,59.60
2018-09-12T08:26:38.189Z,59.60
2018-09-12T08:29:10.488Z,59.00
2018-09-12T08:31:40.974Z,59.30
2018-09-12T08:34:14.053Z,59.50
2018-09-12T08:36:45.318Z,59.10
2018-09-12T08:39:15.865Z,58.70
2018-09-12T08:41:47.440Z,59.20
2018-09-12T08:44:18.204Z,59.20
2018-09-12T08:46:48.889Z,59.10
2018-09-12T08:49:19.344Z,59.60
2018-09-12T08:51:50.060Z,59.20
2018-09-12T08:54:20.710Z,59.70
2018-09-12T08:56:54.005Z,59.70
2018-09-12T08:59:24.945Z,59.80
2018-09-12T09:01:56.306Z,59.70
2018-09-12T09:04:26.808Z,60.00
2018-09-12T09:06:57.827Z,60.20
2018-09-12T09:09:29.328Z,60.40
2018-09-12T09:12:01.413Z,60.20
2018-09-12T09:14:32.401Z,60.00
2018-09-12T09:17:02.841Z,60.00
2018-09-12T09:19:34.403Z,60.00
2018-09-12T09:22:04.494Z,59.80
2018-09-12T09:24:36.066Z,59.50
2018-09-12T09:27:05.742Z,59.10
2018-09-12T09:29:38.120Z,59.00
2018-09-12T09:32:09.909Z,58.80
2018-09-12T09:34:41.051Z,58.00
2018-09-12T09:37:12.335Z,57.90
2018-09-12T09:39:43.488Z,57.80
2018-09-12T09:42:13.671Z,58.10
2018-09-12T09:44:44.506Z,57.60
2018-09-12T09:47:18.083Z,57.30
2018-09-12T09:49:54.812Z,56.40
2018-09-12T09:52:28.097Z,56.30
2018-09-12T09:54:59.403Z,56.20
2018-09-12T09:57:30.046Z,56.50
2018-09-12T10:00:00.961Z,56.70
2018-09-12T10:02:36.365Z,55.50
2018-09-12T10:05:19.222Z,54.80
2018-09-12T10:07:56.668Z,54.40
2018-09-12T10:10:27.440Z,54.60
2018-09-12T10:13:00.322Z,54.30
2018-09-12T10:15:30.621Z,54.10
2018-09-12T10:18:01.539Z,54.10
2018-09-12T10:20:31.889Z,53.80
2018-09-12T10:23:07.657Z,53.20
2018-09-12T10:25:41.629Z,52.70
2018-09-12T10:28:13.782Z,52.70
2018-09-12T10:30:45.650Z,52.20
2018-09-12T10:33:16.193Z,51.80
2018-09-12T10:35:47.165Z,51.30
2018-09-12T10:38:17.999Z,51.00
2018-09-12T10:40:49.677Z,50.00
2018-09-12T10:43:20.746Z,50.40
2018-09-12T10:45:55.254Z,49.90
2018-09-12T10:48:27.245Z,50.30
2018-09-12T10:50:58.846Z,49.10
2018-09-12T10:53:30.469Z,49.00
2018-09-12T10:56:01.458Z,49.80
2018-09-12T10:58:32.711Z,49.00
2018-09-12T11:01:06.662Z,49.60
2018-09-12T11:03:37.611Z,48.30
2018-09-12T11:06:08.560Z,48.80
2018-09-12T11:08:39.617Z,48.90
2018-09-12T11:11:11.087Z,48.10
2018-09-12T11:13:42.263Z,48.10
2018-09-12T11:16:13.550Z,48.40
2018-09-12T11:18:44.084Z,48.00
2018-09-12T11:21:16.660Z,47.20
2018-09-12T11:23:48.296Z,48.00
2018-09-12T11:26:18.614Z,48.00
2018-09-12T11:28:48.818Z,47.30
2018-09-12T11:31:20.179Z,48.30
2018-09-12T11:33:51.136Z,47.00
2018-09-12T11:36:22.569Z,47.00
2018-09-12T11:38:54.409Z,47.20
2018-09-12T11:41:25.963Z,46.80
2018-09-12T11:44:00.106Z,47.10
2018-09-12T11:46:31.961Z,46.30
2018-09-12T11:49:03.747Z,46.30
2018-09-12T11:51:35.120Z,45.80
2018-09-12T11:54:07.271Z,45.90
2018-09-12T11:56:39.632Z,45.80
2018-09-12T11:59:10.032Z,46.00
2018-09-12T12:01:41.460Z,45.80
2018-09-12T12:04:13.662Z,45.10
2018-09-12T12:06:48.845Z,45.40
2018-09-12T12:09:25.055Z,43.90
2018-09-12T12:11:56.432Z,43.20
2018-09-12T12:14:28.668Z,42.70
2018-09-12T12:16:59.696Z,43.60
2018-09-12T12:19:30.233Z,43.40
2018-09-12T12:22:01.295Z,42.80
2018-09-12T12:24:31.756Z,41.90
2018-09-12T12:27:02.624Z,41.70
2018-09-12T12:29:33.618Z,40.50
2018-09-12T12:32:04.400Z,41.40
2018-09-12T12:34:35.537Z,42.30
2018-09-12T12:37:06.429Z,40.90
2018-09-12T12:39:36.905Z,39.90
2018-09-12T12:42:08.616Z,39.60
2018-09-12T12:44:40.497Z,39.90
2018-09-12T12:47:11.772Z,40.10
2018-09-12T12:49:43.261Z,40.10
2018-09-12T12:52:14.220Z,40.40
2018-09-12T12:54:45.598Z,39.40
2018-09-12T12:57:16.298Z,40.80
2018-09-12T12:59:48.038Z,39.30
2018-09-12T13:02:19.325Z,39.30
2018-09-12T13:04:50.965Z,39.70
2018-09-12T13:07:23.944Z,39.60
2018-09-12T13:09:56.099Z,38.80
2018-09-12T13:12:27.523Z,40.00
2018-09-12T13:14:58.275Z,38.90
2018-09-12T13:17:29.259Z,39.10
2018-09-12T13:20:00.225Z,39.70
2018-09-12T13:22:30.908Z,40.30
2018-09-12T13:25:01.024Z,40.40
2018-09-12T13:27:32.202Z,40.20
2018-09-12T13:30:02.410Z,39.90
2018-09-12T13:32:34.263Z,40.50
2018-09-12T13:35:04.477Z,40.60
2018-09-12T13:37:36.140Z,40.70
2018-09-12T13:40:07.776Z,39.60
2018-09-12T13:42:37.903Z,40.30
2018-09-12T13:45:07.828Z,37.50
2018-09-12T13:47:38.374Z,37.20
2018-09-12T13:50:10.223Z,38.90
2018-09-12T13:52:41.343Z,36.80
2018-09-12T13:55:12.087Z,38.70
2018-09-12T13:57:42.189Z,35.80
2018-09-12T14:00:13.817Z,35.80
2018-09-12T14:02:44.656Z,36.00
2018-09-12T14:05:15.624Z,37.10
2018-09-12T14:07:46.384Z,38.00
2018-09-12T14:10:17.940Z,38.20
2018-09-12T14:12:48.844Z,37.90
2018-09-12T14:15:19.982Z,37.90
2018-09-12T14:17:50.171Z,39.40
2018-09-12T14:20:21.230Z,38.60
2018-09-12T14:22:51.490Z,39.10
2018-09-12T14:25:22.490Z,38.90
2018-09-12T14:27:53.392Z,37.10
2018-09-12T14:30:24.649Z,39.00
2018-09-12T14:32:56.215Z,39.50
2018-09-12T14:35:26.823Z,39.10
2018-09-12T14:37:57.972Z,37.90
2018-09-12T14:40:28.352Z,39.30
2018-09-12T14:42:59.856Z,38.90
2018-09-12T14:45:29.947Z,39.50
2018-09-12T14:48:01.246Z,39.00
2018-09-12T14:50:31.396Z,39.30
2018-09-12T14:53:02.051Z,38.40
2018-09-12T14:55:32.903Z,37.60
2018-09-12T14:58:04.146Z,38.20
2018-09-12T15:00:33.975Z,37.40
2018-09-12T15:03:04.744Z,35.90
2018-09-12T15:05:34.251Z,36.00
2018-09-12T15:08:04.826Z,37.10
2018-09-12T15:10:35.486Z,35.60
2018-09-12T15:13:06.617Z,36.60
2018-09-12T15:15:36.334Z,37.50
2018-09-12T15:18:07.208Z,37.40
2018-09-12T15:20:36.728Z,37.30
2018-09-12T15:23:12.243Z,37.30
2018-09-12T15:25:47.471Z,37.80
2018-09-12T15:28:17.743Z,37.90
2018-09-12T15:30:49.282Z,37.70
2018-09-12T15:33:19.548Z,37.10
2018-09-12T15:35:50.138Z,37.80
2018-09-12T15:38:20.046Z,37.80
2018-09-12T15:40:51.368Z,38.00
2018-09-12T15:43:21.139Z,37.80
2018-09-12T15:45:51.958Z,37.60
2018-09-12T15:48:23.221Z,38.10
2018-09-12T15:50:54.755Z,38.10
2018-09-12T15:53:25.313Z,37.90
2018-09-12T15:55:54.969Z,38.40
2018-09-12T15:58:25.233Z,38.90
2018-09-12T16:00:55.459Z,38.70
2018-09-12T16:03:25.520Z,38.60
2018-09-12T16:05:56.286Z,38.70
2018-09-12T16:08:26.238Z,39.00
2018-09-12T16:10:56.436Z,38.60
2018-09-12T16:13:30.413Z,41.40
2018-09-12T16:16:15.180Z,41.40
2018-09-12T16:18:47.548Z,41.30
2018-09-12T16:21:23.511Z,41.40
2018-09-12T16:24:16.959Z,41.60
2018-09-12T16:26:51.876Z,42.00
2018-09-12T16:29:23.061Z,42.00
2018-09-12T16:31:54.904Z,42.60
2018-09-12T16:34:26.072Z,42.90
2018-09-12T16:36:56.826Z,42.90
2018-09-12T16:39:37.378Z,43.20
2018-09-12T16:42:09.528Z,43.70
2018-09-12T16:44:39.767Z,43.80
2018-09-12T16:47:10.099Z,44.70
2018-09-12T16:49:40.643Z,44.30
2018-09-12T16:52:12.082Z,45.30
2018-09-12T16:54:42.146Z,44.80
2018-09-12T16:57:13.436Z,45.00
2018-09-12T16:59:43.787Z,45.10
2018-09-12T17:02:15.239Z,45.10
2018-09-12T17:04:46.722Z,46.10
2018-09-12T17:07:17.447Z,45.50
2018-09-12T17:09:49.887Z,45.50
2018-09-12T17:12:21.287Z,45.60
2018-09-12T17:14:51.979Z,45.80
2018-09-12T17:17:22.526Z,45.90
2018-09-12T17:19:53.183Z,46.00
2018-09-12T17:22:25.032Z,46.10
2018-09-12T17:24:58.832Z,46.50
2018-09-12T17:27:30.627Z,46.60
2018-09-12T17:30:02.816Z,47.70
2018-09-12T17:32:34.604Z,47.80
2018-09-12T17:35:06.808Z,48.90
2018-09-12T17:37:38.651Z,49.00
2018-09-12T17:40:10.923Z,49.50
2018-09-12T17:42:42.259Z,49.90
2018-09-12T17:45:16.561Z,49.90
2018-09-12T17:47:48.749Z,50.00
2018-09-12T17:50:21.854Z,49.80
2018-09-12T17:52:53.270Z,49.90
2018-09-12T17:55:27.992Z,49.70
2018-09-12T17:58:02.768Z,50.10
2018-09-12T18:00:35.901Z,50.10
2018-09-12T18:03:08.607Z,50.00
2018-09-12T18:05:43.659Z,50.30
2018-09-12T18:08:15.953Z,51.00
2018-09-12T18:10:49.776Z,51.40
2018-09-12T18:13:23.637Z,51.60
2018-09-12T18:15:57.623Z,51.70
2018-09-12T18:18:28.465Z,51.70
2018-09-12T18:21:00.285Z,51.50
2018-09-12T18:23:30.795Z,51.40
2018-09-12T18:26:01.090Z,51.50
2018-09-12T18:28:32.051Z,51.60
2018-09-12T18:31:02.871Z,51.50
2018-09-12T18:33:33.153Z,51.60
2018-09-12T18:36:03.798Z,51.80
2018-09-12T18:38:35.342Z,52.00
2018-09-12T18:41:06.280Z,52.20
2018-09-12T18:43:36.977Z,52.80
2018-09-12T18:46:07.061Z,53.10
2018-09-12T18:48:44.581Z,53.00
2018-09-12T18:51:15.656Z,53.10
2018-09-12T18:53:46.061Z,53.50
2018-09-12T18:56:16.310Z,52.80
2018-09-12T18:58:47.113Z,52.90
2018-09-12T19:01:18.298Z,53.30
2018-09-12T19:03:48.501Z,52.90
2018-09-12T19:06:19.285Z,53.10
2018-09-12T19:08:50.799Z,53.40
2018-09-12T19:11:22.631Z,53.60
2018-09-12T19:13:53.386Z,54.00
2018-09-12T19:16:24.059Z,53.90
2018-09-12T19:18:53.924Z,52.80
2018-09-12T19:21:25.754Z,53.00
2018-09-12T19:23:56.856Z,53.30
2018-09-12T19:26:27.449Z,54.00
2018-09-12T19:28:57.937Z,54.70
2018-09-12T19:31:29.839Z,54.70
2018-09-12T19:34:07.890Z,55.00
2018-09-12T19:36:38.908Z,55.00
2018-09-12T19:39:11.122Z,55.30
2018-09-12T19:41:42.962Z,55.60
2018-09-12T19:44:13.671Z,55.90
2018-09-12T19:46:44.600Z,55.70
2018-09-12T19:49:15.776Z,55.70
2018-09-12T19:51:46.590Z,55.30
2018-09-12T19:54:16.446Z,55.20
2018-09-12T19:56:46.286Z,55.20
2018-09-12T19:59:16.246Z,55.20
2018-09-12T20:01:48.632Z,55.70
2018-09-12T20:04:18.824Z,56.30
2018-09-12T20:06:51.013Z,56.40
2018-09-12T20:09:21.735Z,56.60
2018-09-12T20:11:52.589Z,56.50
2018-09-12T20:14:23.663Z,56.60
2018-09-12T20:16:54.363Z,56.30
2018-09-12T20:19:26.870Z,56.40
2018-09-12T20:21:56.982Z,55.70
2018-09-12T20:24:28.118Z,55.90
2018-09-12T20:26:58.230Z,56.30
2018-09-12T20:29:29.378Z,56.50
2018-09-12T20:31:59.078Z,56.70
2018-09-12T20:34:30.915Z,56.90
2018-09-12T20:37:01.277Z,56.80
2018-09-12T20:39:32.072Z,56.60
2018-09-12T20:42:02.476Z,56.70
2018-09-12T20:44:33.794Z,56.50
2018-09-12T20:47:03.667Z,56.50
2018-09-12T20:49:35.078Z,56.60
2018-09-12T20:52:05.361Z,56.80
2018-09-12T20:54:36.311Z,56.80
2018-09-12T20:57:09.423Z,56.90
2018-09-12T20:59:41.047Z,56.80
2018-09-12T21:02:12.320Z,56.40
2018-09-12T21:04:43.609Z,56.50
2018-09-12T21:07:15.302Z,56.60
2018-09-12T21:09:45.090Z,56.40
2018-09-12T21:12:15.867Z,56.30
2018-09-12T21:14:45.676Z,56.40
2018-09-12T21:17:17.690Z,56.60
2018-09-12T21:19:48.079Z,56.90
2018-09-12T21:22:18.518Z,56.80
2018-09-12T21:24:48.724Z,56.70
2018-09-12T21:27:20.518Z,56.70
2018-09-12T21:29:51.080Z,56.80
2018-09-12T21:32:21.882Z,57.00
2018-09-12T21:34:52.552Z,57.50
2018-09-12T21:37:23.875Z,58.50
2018-09-12T21:39:55.827Z,59.30
2018-09-12T21:42:26.396Z,59.60
2018-09-12T21:44:56.775Z,59.60
2018-09-12T21:47:27.351Z,59.30
2018-09-12T21:49:58.782Z,59.00
2018-09-12T21:52:28.913Z,58.80
2018-09-12T21:54:59.956Z,58.70
2018-09-12T21:57:32.710Z,58.80
2018-09-12T22:00:04.208Z,59.40
2018-09-12T22:02:35.718Z,59.40
2018-09-12T22:05:07.511Z,62.20
2018-09-12T22:07:38.731Z,63.70
2018-09-12T22:10:10.039Z,63.40
2018-09-12T22:12:41.157Z,65.20
2018-09-12T22:15:11.693Z,65.70
2018-09-12T22:17:42.947Z,66.20
2018-09-12T22:20:23.786Z,67.20
2018-09-12T22:23:20.699Z,65.00
2018-09-12T22:25:51.952Z,66.50
2018-09-12T22:28:25.453Z,75.40
2018-09-12T22:30:56.607Z,76.40
